Palmyra, Michigan
Current Conditions -  °F | °C
As of 10:53 AM on Saturday 25 Oct 2014 (Local Time) from KADG Reporting Station
Haze Haze  
Wind Chill: 57°   Ceiling: 1200
Heat Index: 57°   Visibility: 6mi
Dew Point: 53°   Wind: 9mph
Humidity: 87%   Direction: 270°W
Pressure: 29.85"   Gusts: NA
Location:  41.86°N, 83.94°W
Report Text: KADG 251453Z AUTO 27008KT 6SM BR OVC012 14/12 A2985 RMK AO2 SLP113 T01390117 56010
Loading
Personal Weather Stations






























Interactive Weather Map
Tropical Storm Tracking
New forecast layout! Learn more

10-Day Weather Forecast

Advertisements
Track Severe Weather on mobile